createdAt,value
2019-01-27T00:01:28.404Z,-2.18
2019-01-27T00:03:37.903Z,-2.19
2019-01-27T00:05:44.171Z,-2.26
2019-01-27T00:07:53.132Z,-2.26
2019-01-27T00:09:59.812Z,-2.27
2019-01-27T00:12:06.743Z,-2.25
2019-01-27T00:14:14.811Z,-2.23
2019-01-27T00:16:20.984Z,-2.27
2019-01-27T00:18:27.071Z,-2.27
2019-01-27T00:20:33.469Z,-2.28
2019-01-27T00:22:39.844Z,-2.28
2019-01-27T00:24:46.162Z,-2.29
2019-01-27T00:26:52.412Z,-2.30
2019-01-27T00:28:59.739Z,-2.28
2019-01-27T00:31:06.704Z,-2.26
2019-01-27T00:33:13.184Z,-2.26
2019-01-27T00:35:19.532Z,-2.27
2019-01-27T00:37:27.278Z,-2.29
2019-01-27T00:39:33.696Z,-2.30
2019-01-27T00:41:43.050Z,-2.29
2019-01-27T00:43:49.419Z,-2.30
2019-01-27T00:45:59.543Z,-2.30
2019-01-27T00:48:05.807Z,-2.34
2019-01-27T00:50:16.347Z,-2.38
2019-01-27T00:52:23.460Z,-2.37
2019-01-27T00:54:29.905Z,-2.33
2019-01-27T00:56:37.675Z,-2.31
2019-01-27T00:58:45.038Z,-2.29
2019-01-27T01:00:51.596Z,-2.32
2019-01-27T01:02:57.880Z,-2.33
2019-01-27T01:05:04.143Z,-2.34
2019-01-27T01:07:12.093Z,-2.30
2019-01-27T01:09:20.194Z,-2.29
2019-01-27T01:11:27.962Z,-2.29
2019-01-27T01:13:34.230Z,-2.26
2019-01-27T01:15:40.604Z,-2.24
2019-01-27T01:17:48.495Z,-2.24
2019-01-27T01:19:57.514Z,-2.22
2019-01-27T01:22:03.923Z,-2.19
2019-01-27T01:24:12.262Z,-2.17
2019-01-27T01:26:18.549Z,-2.15
2019-01-27T01:28:25.129Z,-2.13
2019-01-27T01:30:33.116Z,-2.13
2019-01-27T01:32:39.384Z,-2.11
2019-01-27T01:34:45.526Z,-2.11
2019-01-27T01:36:51.677Z,-2.12
2019-01-27T01:38:57.854Z,-2.18
2019-01-27T01:41:04.190Z,-2.17
2019-01-27T01:43:10.724Z,-2.14
2019-01-27T01:45:33.466Z,-2.12
2019-01-27T01:47:41.108Z,-2.11
2019-01-27T01:49:48.718Z,-2.14
2019-01-27T01:51:55.482Z,-2.14
2019-01-27T01:54:02.024Z,-2.20
2019-01-27T01:56:10.062Z,-2.18
2019-01-27T01:58:16.202Z,-2.17
2019-01-27T02:00:28.332Z,-2.15
2019-01-27T02:02:37.549Z,-2.14
2019-01-27T02:04:44.370Z,-2.14
2019-01-27T02:06:50.705Z,-2.13
2019-01-27T02:08:57.670Z,-2.13
2019-01-27T02:11:04.234Z,-2.12
2019-01-27T02:13:10.810Z,-2.10
2019-01-27T02:15:27.800Z,-2.12
2019-01-27T02:17:35.287Z,-2.14
2019-01-27T02:19:41.773Z,-2.13
2019-01-27T02:21:48.180Z,-2.11
2019-01-27T02:23:54.799Z,-2.09
2019-01-27T02:26:01.054Z,-2.08
2019-01-27T02:28:10.074Z,-2.05
2019-01-27T02:30:19.295Z,-2.06
2019-01-27T02:32:25.491Z,-2.06
2019-01-27T02:34:34.201Z,-2.08
2019-01-27T02:36:41.887Z,-2.07
2019-01-27T02:38:47.937Z,-2.11
2019-01-27T02:40:54.314Z,-2.09
2019-01-27T02:43:00.556Z,-2.07
2019-01-27T02:45:20.483Z,-2.04
2019-01-27T02:47:26.715Z,-2.02
2019-01-27T02:49:34.366Z,-2.06
2019-01-27T02:51:41.850Z,-2.06
2019-01-27T02:53:48.055Z,-2.07
2019-01-27T02:55:54.273Z,-2.05
2019-01-27T02:58:00.353Z,-2.07
2019-01-27T03:00:18.694Z,-2.06
2019-01-27T03:02:29.770Z,-2.04
2019-01-27T03:04:36.030Z,-2.03
2019-01-27T03:06:56.071Z,-2.02
2019-01-27T03:09:04.090Z,-2.02
2019-01-27T03:11:13.448Z,-2.02
2019-01-27T03:13:21.301Z,-2.01
2019-01-27T03:15:27.762Z,-2.01
2019-01-27T03:17:36.061Z,-1.98
2019-01-27T03:19:42.381Z,-1.99
2019-01-27T03:21:48.883Z,-2.02
2019-01-27T03:23:55.418Z,-2.02
2019-01-27T03:26:02.174Z,-2.00
2019-01-27T03:28:10.183Z,-1.97
2019-01-27T03:30:24.434Z,-1.96
2019-01-27T03:32:30.588Z,-1.96
2019-01-27T03:34:37.527Z,-1.97
2019-01-27T03:36:43.825Z,-1.96
2019-01-27T03:38:50.300Z,-2.00
2019-01-27T03:40:56.484Z,-1.99
2019-01-27T03:43:02.757Z,-2.00
2019-01-27T03:45:15.989Z,-1.97
2019-01-27T03:47:23.395Z,-1.98
2019-01-27T03:49:32.241Z,-1.97
2019-01-27T03:51:38.780Z,-1.96
2019-01-27T03:53:45.011Z,-1.94
2019-01-27T03:55:52.763Z,-1.95
2019-01-27T03:58:00.460Z,-1.95
2019-01-27T04:00:16.643Z,-1.97
2019-01-27T04:02:23.009Z,-1.99
2019-01-27T04:04:30.593Z,-1.97
2019-01-27T04:06:38.895Z,-1.97
2019-01-27T04:08:45.056Z,-1.95
2019-01-27T04:10:51.206Z,-1.92
2019-01-27T04:12:57.378Z,-1.90
2019-01-27T04:15:05.179Z,-1.94
2019-01-27T04:17:14.299Z,-1.92
2019-01-27T04:19:20.457Z,-1.88
2019-01-27T04:21:28.155Z,-1.87
2019-01-27T04:23:34.411Z,-1.87
2019-01-27T04:25:43.254Z,-1.89
2019-01-27T04:27:50.127Z,-1.88
2019-01-27T04:29:56.886Z,-1.87
2019-01-27T04:32:03.152Z,-1.84
2019-01-27T04:34:09.589Z,-1.89
2019-01-27T04:36:16.304Z,-1.90
2019-01-27T04:38:23.736Z,-1.89
2019-01-27T04:40:29.819Z,-1.88
2019-01-27T04:42:36.278Z,-1.86
2019-01-27T04:44:44.208Z,-1.88
2019-01-27T04:46:50.427Z,-1.86
2019-01-27T04:48:56.981Z,-1.86
2019-01-27T04:51:04.871Z,-1.82
2019-01-27T04:53:12.278Z,-1.80
2019-01-27T04:55:20.138Z,-1.80
2019-01-27T04:57:26.239Z,-1.79
2019-01-27T04:59:32.718Z,-1.76
2019-01-27T05:01:38.958Z,-1.77
2019-01-27T05:03:50.856Z,-1.80
2019-01-27T05:05:56.920Z,-1.80
2019-01-27T05:08:03.891Z,-1.81
2019-01-27T05:10:15.691Z,-1.82
2019-01-27T05:12:22.054Z,-1.82
2019-01-27T05:14:29.703Z,-1.80
2019-01-27T05:16:36.001Z,-1.81
2019-01-27T05:18:42.256Z,-1.81
2019-01-27T05:20:48.829Z,-1.81
2019-01-27T05:22:55.084Z,-1.78
2019-01-27T05:25:01.436Z,-1.79
2019-01-27T05:27:08.952Z,-1.78
2019-01-27T05:29:15.187Z,-1.62
2019-01-27T05:31:21.937Z,-1.52
2019-01-27T05:33:28.441Z,-1.60
2019-01-27T05:35:39.031Z,-1.51
2019-01-27T05:37:45.607Z,-1.40
2019-01-27T05:39:52.296Z,-1.40
2019-01-27T05:41:59.039Z,-1.42
2019-01-27T05:44:05.560Z,-1.50
2019-01-27T05:46:12.177Z,-1.59
2019-01-27T05:48:18.496Z,-1.42
2019-01-27T05:50:24.566Z,-1.52
2019-01-27T05:52:31.358Z,-1.47
2019-01-27T05:54:38.099Z,-1.31
2019-01-27T05:56:44.424Z,-1.34
2019-01-27T05:58:53.603Z,-1.22
2019-01-27T06:01:01.098Z,-1.15
2019-01-27T06:03:07.413Z,-1.27
2019-01-27T06:05:14.015Z,-1.40
2019-01-27T06:07:20.167Z,-1.60
2019-01-27T06:09:26.517Z,-1.61
2019-01-27T06:11:34.435Z,-1.55
2019-01-27T06:13:41.110Z,-1.61
2019-01-27T06:15:47.485Z,-1.41
2019-01-27T06:17:54.024Z,-1.39
2019-01-27T06:20:00.484Z,-1.37
2019-01-27T06:22:08.589Z,-1.20
2019-01-27T06:24:16.604Z,-1.21
2019-01-27T06:26:23.364Z,-1.21
2019-01-27T06:28:30.650Z,-1.20
2019-01-27T06:30:39.812Z,-1.14
2019-01-27T06:32:53.877Z,-1.15
2019-01-27T06:35:00.708Z,-1.15
2019-01-27T06:37:06.913Z,-1.09
2019-01-27T06:39:14.338Z,-1.01
2019-01-27T06:41:20.599Z,-1.03
2019-01-27T06:43:26.901Z,-0.91
2019-01-27T06:45:34.859Z,-0.98
2019-01-27T06:47:42.183Z,-1.17
2019-01-27T06:49:49.325Z,-1.24
2019-01-27T06:51:55.725Z,-1.31
2019-01-27T06:54:01.853Z,-1.33
2019-01-27T06:56:10.674Z,-1.28
2019-01-27T06:58:18.050Z,-1.39
2019-01-27T07:00:29.516Z,-1.39
2019-01-27T07:02:39.790Z,-1.40
2019-01-27T07:04:49.862Z,-1.38
2019-01-27T07:07:08.087Z,-1.36
2019-01-27T07:09:22.852Z,-1.35
2019-01-27T07:11:39.462Z,-1.37
2019-01-27T07:14:06.692Z,-1.34
2019-01-27T07:16:16.329Z,-1.30
2019-01-27T07:18:34.884Z,-1.28
2019-01-27T07:20:43.086Z,-1.27
2019-01-27T07:22:51.202Z,-1.24
2019-01-27T07:25:02.245Z,-1.24
2019-01-27T07:27:12.565Z,-1.17
2019-01-27T07:29:37.723Z,-1.14
2019-01-27T07:32:02.325Z,-1.17
2019-01-27T07:34:24.753Z,-1.19
2019-01-27T07:36:42.681Z,-1.16
2019-01-27T07:38:50.517Z,-1.18
2019-01-27T07:41:15.579Z,-1.15
2019-01-27T07:43:30.854Z,-1.12
2019-01-27T07:45:41.489Z,-1.06
2019-01-27T07:47:56.177Z,-1.04
2019-01-27T07:50:25.156Z,-1.02
2019-01-27T07:52:34.613Z,-1.03
2019-01-27T07:54:42.704Z,-0.99
2019-01-27T07:56:55.425Z,-0.99
2019-01-27T07:59:06.485Z,-0.94
2019-01-27T08:01:14.486Z,-0.95
2019-01-27T08:03:22.449Z,-0.94
2019-01-27T08:05:46.662Z,-0.90
2019-01-27T08:07:57.840Z,-0.89
2019-01-27T08:10:08.076Z,-0.88
2019-01-27T08:12:17.231Z,-0.90
2019-01-27T08:14:31.331Z,-0.92
2019-01-27T08:16:52.702Z,-0.89
2019-01-27T08:19:13.090Z,-0.88
2019-01-27T08:21:23.550Z,-0.90
2019-01-27T08:23:38.700Z,-0.87
2019-01-27T08:25:47.963Z,-0.85
2019-01-27T08:27:58.391Z,-0.82
2019-01-27T08:30:14.321Z,-0.79
2019-01-27T08:32:20.501Z,-0.75
2019-01-27T08:34:31.500Z,-0.74
2019-01-27T08:36:42.279Z,-0.73
2019-01-27T08:39:07.180Z,-0.69
2019-01-27T08:41:17.936Z,-0.72
2019-01-27T08:43:27.001Z,-0.66
2019-01-27T08:45:38.850Z,-0.61
2019-01-27T08:47:46.380Z,-0.60
2019-01-27T08:49:52.760Z,-0.62
2019-01-27T08:51:59.120Z,-0.60
2019-01-27T08:54:05.551Z,-0.53
2019-01-27T08:56:12.100Z,-0.50
2019-01-27T08:58:20.002Z,-0.50
2019-01-27T09:00:27.827Z,-0.50
2019-01-27T09:02:36.000Z,-0.49
2019-01-27T09:04:50.764Z,-0.52
2019-01-27T09:06:58.878Z,-0.50
2019-01-27T09:09:18.951Z,-0.44
2019-01-27T09:11:32.901Z,-0.38
2019-01-27T09:13:44.590Z,-0.33
2019-01-27T09:15:55.912Z,-0.32
2019-01-27T09:18:08.797Z,-0.31
2019-01-27T09:20:27.413Z,-0.17
2019-01-27T09:22:41.260Z,-0.08
2019-01-27T09:24:59.387Z,-0.11
2019-01-27T09:27:07.400Z,-0.12
2019-01-27T09:29:15.743Z,-0.09
2019-01-27T09:31:26.780Z,-0.03
2019-01-27T09:33:35.917Z,0.03
2019-01-27T09:35:54.611Z,0.11
2019-01-27T09:38:05.330Z,0.17
2019-01-27T09:40:19.161Z,0.21
2019-01-27T09:42:29.329Z,0.25
2019-01-27T09:44:48.998Z,0.27
2019-01-27T09:47:15.621Z,0.29
2019-01-27T09:49:38.501Z,0.34
2019-01-27T09:51:48.585Z,0.34
2019-01-27T09:54:11.980Z,0.40
2019-01-27T09:56:23.168Z,0.46
2019-01-27T09:58:46.320Z,0.45
2019-01-27T10:00:57.605Z,0.49
2019-01-27T10:03:10.423Z,0.49
2019-01-27T10:05:18.620Z,0.51
2019-01-27T10:07:36.879Z,0.50
2019-01-27T10:09:50.801Z,0.53
2019-01-27T10:12:01.773Z,0.54
2019-01-27T10:14:16.127Z,0.56
2019-01-27T10:16:30.677Z,0.60
2019-01-27T10:18:45.874Z,0.59
2019-01-27T10:21:01.520Z,0.63
2019-01-27T10:23:18.334Z,0.64
2019-01-27T10:25:29.560Z,0.70
2019-01-27T10:27:53.489Z,0.69
2019-01-27T10:30:01.481Z,0.70
2019-01-27T10:32:10.423Z,0.70
2019-01-27T10:34:28.801Z,0.72
2019-01-27T10:36:47.191Z,0.75
2019-01-27T10:39:05.680Z,0.70
2019-01-27T10:41:15.280Z,0.74
2019-01-27T10:43:41.721Z,0.75
2019-01-27T10:46:01.804Z,0.79
2019-01-27T10:48:13.600Z,0.80
2019-01-27T10:50:30.929Z,0.81
2019-01-27T10:52:38.911Z,0.81
2019-01-27T10:54:59.010Z,0.76
2019-01-27T10:57:06.950Z,0.75
2019-01-27T10:59:22.168Z,0.79
2019-01-27T11:01:29.122Z,0.78
2019-01-27T11:03:51.383Z,0.80
2019-01-27T11:06:09.620Z,0.81
2019-01-27T11:08:17.425Z,0.78
2019-01-27T11:10:32.884Z,0.77
2019-01-27T11:12:56.659Z,0.77
2019-01-27T11:15:09.984Z,0.80
2019-01-27T11:17:34.708Z,0.79
2019-01-27T11:19:45.859Z,0.83
2019-01-27T11:21:51.872Z,0.87
2019-01-27T11:24:10.575Z,0.89
2019-01-27T11:26:19.899Z,0.94
2019-01-27T11:28:31.229Z,0.99
2019-01-27T11:30:43.678Z,1.01
2019-01-27T11:32:55.618Z,1.03
2019-01-27T11:35:24.330Z,1.12
2019-01-27T11:37:42.808Z,1.16
2019-01-27T11:40:09.481Z,1.19
2019-01-27T11:42:20.515Z,1.21
2019-01-27T11:44:28.569Z,1.17
2019-01-27T11:46:36.455Z,1.15
2019-01-27T11:48:44.714Z,1.14
2019-01-27T11:50:52.927Z,1.16
2019-01-27T11:52:59.241Z,1.16
2019-01-27T11:55:06.788Z,1.18
2019-01-27T11:57:19.311Z,1.16
2019-01-27T11:59:26.133Z,1.19
2019-01-27T12:01:32.721Z,1.22
2019-01-27T12:03:39.059Z,1.25
2019-01-27T12:05:45.717Z,1.20
2019-01-27T12:07:52.508Z,1.22
2019-01-27T12:09:58.907Z,1.27
2019-01-27T12:12:05.637Z,1.30
2019-01-27T12:14:12.765Z,1.34
2019-01-27T12:16:19.405Z,1.33
2019-01-27T12:18:25.780Z,1.36
2019-01-27T12:20:32.709Z,1.32
2019-01-27T12:22:40.058Z,1.39
2019-01-27T12:24:47.541Z,1.40
2019-01-27T12:26:54.551Z,1.44
2019-01-27T12:29:01.259Z,1.49
2019-01-27T12:31:07.995Z,1.57
2019-01-27T12:33:14.485Z,1.65
2019-01-27T12:35:21.146Z,1.64
2019-01-27T12:37:28.848Z,1.64
2019-01-27T12:39:35.761Z,1.60
2019-01-27T12:41:44.802Z,1.56
2019-01-27T12:43:52.564Z,1.60
2019-01-27T12:45:59.204Z,1.52
2019-01-27T12:48:06.522Z,1.54
2019-01-27T12:50:16.087Z,1.49
2019-01-27T12:52:23.142Z,1.53
2019-01-27T12:54:29.563Z,1.53
2019-01-27T12:56:36.266Z,1.61
2019-01-27T12:58:43.003Z,1.62
2019-01-27T13:00:53.870Z,1.71
2019-01-27T13:03:00.813Z,1.77
2019-01-27T13:05:10.327Z,1.77
2019-01-27T13:07:16.262Z,1.82
2019-01-27T13:09:22.694Z,1.84
2019-01-27T13:11:29.697Z,1.88
2019-01-27T13:13:36.952Z,1.89
2019-01-27T13:15:45.449Z,1.87
2019-01-27T13:17:52.032Z,1.87
2019-01-27T13:19:59.799Z,1.84
2019-01-27T13:22:06.916Z,1.82
2019-01-27T13:24:13.649Z,1.76
2019-01-27T13:26:20.352Z,1.72
2019-01-27T13:28:26.943Z,1.73
2019-01-27T13:30:33.699Z,1.77
2019-01-27T13:32:40.412Z,1.79
2019-01-27T13:34:47.101Z,1.84
2019-01-27T13:36:53.442Z,1.89
2019-01-27T13:39:01.751Z,1.92
2019-01-27T13:41:09.623Z,1.95
2019-01-27T13:43:16.522Z,1.97
2019-01-27T13:45:29.802Z,1.94
2019-01-27T13:47:36.207Z,1.94
2019-01-27T13:49:42.907Z,1.95
2019-01-27T13:51:50.064Z,1.99
2019-01-27T13:53:56.862Z,2.01
2019-01-27T13:56:03.591Z,1.99
2019-01-27T13:58:10.327Z,1.94
2019-01-27T14:00:33.265Z,1.90
2019-01-27T14:02:41.772Z,1.89
2019-01-27T14:04:48.712Z,1.87
2019-01-27T14:06:55.355Z,1.83
2019-01-27T14:09:02.079Z,1.80
2019-01-27T14:11:10.984Z,1.77
2019-01-27T14:13:17.609Z,1.75
2019-01-27T14:15:30.763Z,1.77
2019-01-27T14:17:37.612Z,1.81
2019-01-27T14:19:44.373Z,1.87
2019-01-27T14:21:51.193Z,1.86
2019-01-27T14:23:57.842Z,1.84
2019-01-27T14:26:04.700Z,1.84
2019-01-27T14:28:11.152Z,1.85
2019-01-27T14:30:27.465Z,1.84
2019-01-27T14:32:34.522Z,1.83
2019-01-27T14:34:41.763Z,1.82
2019-01-27T14:36:48.503Z,1.80
2019-01-27T14:38:55.392Z,1.84
2019-01-27T14:41:02.123Z,1.83
2019-01-27T14:43:08.812Z,1.83
2019-01-27T14:45:19.442Z,1.84
2019-01-27T14:47:26.139Z,1.83
2019-01-27T14:49:32.924Z,1.84
2019-01-27T14:51:39.794Z,1.85
2019-01-27T14:53:46.810Z,1.85
2019-01-27T14:55:53.458Z,1.85
2019-01-27T14:58:00.186Z,1.86
2019-01-27T15:00:20.266Z,1.85
2019-01-27T15:02:26.928Z,1.85
2019-01-27T15:04:33.928Z,1.86
2019-01-27T15:06:40.688Z,1.86
2019-01-27T15:08:47.277Z,1.87
2019-01-27T15:10:54.068Z,1.85
2019-01-27T15:13:01.185Z,1.85
2019-01-27T15:15:14.388Z,1.85
2019-01-27T15:17:21.339Z,1.86
2019-01-27T15:19:28.249Z,1.86
2019-01-27T15:21:35.037Z,1.86
2019-01-27T15:23:41.488Z,1.87
2019-01-27T15:25:48.887Z,1.89
2019-01-27T15:27:55.782Z,1.89
2019-01-27T15:30:03.582Z,1.90
2019-01-27T15:32:10.473Z,1.90
2019-01-27T15:34:17.184Z,1.92
2019-01-27T15:36:23.991Z,1.93
2019-01-27T15:38:31.096Z,1.92
2019-01-27T15:40:37.774Z,1.93
2019-01-27T15:42:45.072Z,1.95
2019-01-27T15:44:51.894Z,1.94
2019-01-27T15:46:59.035Z,1.94
2019-01-27T15:49:06.182Z,1.97
2019-01-27T15:51:12.854Z,1.97
2019-01-27T15:53:19.910Z,1.95
2019-01-27T15:55:26.830Z,1.96
2019-01-27T15:57:34.657Z,1.95
2019-01-27T15:59:42.743Z,1.94
2019-01-27T16:01:49.726Z,1.94
2019-01-27T16:03:56.778Z,1.95
2019-01-27T16:06:07.507Z,1.97
2019-01-27T16:08:15.749Z,1.96
2019-01-27T16:10:24.347Z,1.97
2019-01-27T16:12:32.350Z,1.96
2019-01-27T16:14:39.619Z,1.97
2019-01-27T16:16:46.420Z,1.97
2019-01-27T16:18:58.864Z,1.97
2019-01-27T16:21:01.732Z,1.98
2019-01-27T16:23:16.175Z,1.99
2019-01-27T16:25:23.671Z,2.01
2019-01-27T16:27:30.647Z,2.04
2019-01-27T16:29:39.359Z,2.03
2019-01-27T16:31:47.957Z,2.05
2019-01-27T16:34:00.492Z,2.06
2019-01-27T16:36:07.851Z,2.05
2019-01-27T16:38:14.610Z,2.06
2019-01-27T16:40:21.401Z,2.07
2019-01-27T16:42:28.361Z,2.08
2019-01-27T16:44:35.168Z,2.08
2019-01-27T16:46:41.904Z,2.09
2019-01-27T16:48:48.691Z,2.09
2019-01-27T16:50:57.342Z,2.10
2019-01-27T16:53:04.053Z,2.12
2019-01-27T16:55:21.768Z,2.12
2019-01-27T16:57:29.651Z,2.10
2019-01-27T16:59:36.660Z,2.10
2019-01-27T17:01:43.661Z,2.12
2019-01-27T17:03:50.692Z,2.11
2019-01-27T17:05:57.741Z,2.14
2019-01-27T17:08:04.570Z,2.12
2019-01-27T17:10:18.465Z,2.12
2019-01-27T17:12:25.401Z,2.09
2019-01-27T17:14:32.161Z,2.07
2019-01-27T17:16:38.848Z,2.07
2019-01-27T17:18:46.571Z,2.10
2019-01-27T17:20:53.872Z,2.10
2019-01-27T17:23:01.538Z,2.12
2019-01-27T17:25:11.731Z,2.13
2019-01-27T17:27:18.228Z,2.13
2019-01-27T17:29:25.408Z,2.14
2019-01-27T17:31:33.291Z,2.14
2019-01-27T17:33:40.572Z,2.14
2019-01-27T17:35:47.361Z,2.15
2019-01-27T17:37:54.422Z,2.16
2019-01-27T17:40:01.518Z,2.16
2019-01-27T17:42:08.418Z,2.16
2019-01-27T17:44:15.386Z,2.17
2019-01-27T17:46:22.178Z,2.17
2019-01-27T17:48:29.058Z,2.16
2019-01-27T17:50:36.158Z,2.17
2019-01-27T17:52:43.200Z,2.17
2019-01-27T17:54:50.318Z,2.17
2019-01-27T17:57:01.627Z,2.20
2019-01-27T17:59:11.414Z,2.20
2019-01-27T18:01:35.604Z,2.23
2019-01-27T18:03:56.889Z,2.23
2019-01-27T18:06:08.364Z,2.25
2019-01-27T18:08:16.931Z,2.27
2019-01-27T18:10:25.223Z,2.28
2019-01-27T18:12:43.029Z,2.29
2019-01-27T18:14:49.843Z,2.30
2019-01-27T18:16:56.863Z,2.33
2019-01-27T18:19:03.744Z,2.33
2019-01-27T18:21:10.774Z,2.34
2019-01-27T18:23:17.593Z,2.37
2019-01-27T18:25:24.692Z,2.36
2019-01-27T18:27:31.347Z,2.36
2019-01-27T18:29:38.492Z,2.37
2019-01-27T18:31:45.398Z,2.40
2019-01-27T18:33:52.380Z,2.40
2019-01-27T18:35:58.930Z,2.41
2019-01-27T18:38:06.109Z,2.41
2019-01-27T18:40:14.195Z,2.39
2019-01-27T18:42:21.102Z,2.42
2019-01-27T18:44:28.415Z,2.44
2019-01-27T18:46:35.014Z,2.44
2019-01-27T18:48:41.758Z,2.45
2019-01-27T18:50:48.698Z,2.46
2019-01-27T18:52:57.157Z,2.47
2019-01-27T18:55:06.290Z,2.47
2019-01-27T18:57:14.904Z,2.49
2019-01-27T18:59:24.752Z,2.51
2019-01-27T19:01:45.330Z,2.52
2019-01-27T19:04:09.118Z,2.53
2019-01-27T19:06:20.771Z,2.53
2019-01-27T19:08:29.240Z,2.54
2019-01-27T19:10:49.982Z,2.55
2019-01-27T19:12:58.849Z,2.55
2019-01-27T19:15:10.688Z,2.57
2019-01-27T19:17:30.012Z,2.57
2019-01-27T19:19:54.570Z,2.57
2019-01-27T19:22:03.177Z,2.57
2019-01-27T19:24:13.540Z,2.58
2019-01-27T19:26:24.770Z,2.58
2019-01-27T19:28:49.510Z,2.58
2019-01-27T19:31:06.988Z,2.58
2019-01-27T19:33:18.680Z,2.58
2019-01-27T19:35:36.010Z,2.58
2019-01-27T19:37:53.588Z,2.58
2019-01-27T19:40:02.312Z,2.57
2019-01-27T19:42:10.707Z,2.55
2019-01-27T19:44:26.064Z,2.55
2019-01-27T19:46:50.046Z,2.55
2019-01-27T19:49:17.004Z,2.56
2019-01-27T19:51:33.496Z,2.55
2019-01-27T19:53:50.925Z,2.55
2019-01-27T19:56:06.910Z,2.53
2019-01-27T19:58:22.396Z,2.53
2019-01-27T20:00:31.187Z,2.52
2019-01-27T20:02:56.214Z,2.52
2019-01-27T20:05:04.933Z,2.52
2019-01-27T20:07:28.946Z,2.50
2019-01-27T20:09:54.525Z,2.50
2019-01-27T20:12:03.873Z,2.48
2019-01-27T20:14:18.946Z,2.44
2019-01-27T20:16:40.146Z,2.44
2019-01-27T20:18:47.185Z,2.44
2019-01-27T20:20:59.903Z,2.44
2019-01-27T20:23:06.354Z,2.42
2019-01-27T20:25:18.305Z,2.42
2019-01-27T20:27:26.785Z,2.42
2019-01-27T20:29:39.762Z,2.42
2019-01-27T20:31:54.285Z,2.41
2019-01-27T20:34:02.229Z,2.42
2019-01-27T20:36:10.865Z,2.41
2019-01-27T20:38:37.666Z,2.41
2019-01-27T20:41:00.385Z,2.39
2019-01-27T20:43:21.265Z,2.39
2019-01-27T20:45:39.185Z,2.41
2019-01-27T20:47:48.149Z,2.41
2019-01-27T20:49:56.540Z,2.39
2019-01-27T20:52:10.927Z,2.39
2019-01-27T20:54:25.525Z,2.41
2019-01-27T20:56:34.486Z,2.40
2019-01-27T20:58:49.092Z,2.39
2019-01-27T21:01:00.848Z,2.38
2019-01-27T21:03:09.685Z,2.37
2019-01-27T21:05:23.765Z,2.36
2019-01-27T21:07:38.365Z,2.34
2019-01-27T21:10:04.278Z,2.32
2019-01-27T21:12:15.685Z,2.30
2019-01-27T21:14:29.933Z,2.27
2019-01-27T21:16:38.526Z,2.24
2019-01-27T21:18:50.209Z,2.22
2019-01-27T21:20:57.325Z,2.18
2019-01-27T21:23:04.505Z,2.13
2019-01-27T21:25:14.105Z,2.09
2019-01-27T21:27:20.925Z,2.05
2019-01-27T21:29:28.133Z,2.01
2019-01-27T21:31:35.245Z,1.99
2019-01-27T21:33:44.259Z,1.98
2019-01-27T21:35:50.965Z,1.96
2019-01-27T21:37:57.945Z,1.95
2019-01-27T21:40:07.445Z,1.93
2019-01-27T21:42:14.544Z,1.91
2019-01-27T21:44:21.805Z,1.88
2019-01-27T21:46:28.425Z,1.85
2019-01-27T21:48:35.066Z,1.81
2019-01-27T21:50:41.886Z,1.76
2019-01-27T21:52:50.187Z,1.76
2019-01-27T21:54:56.785Z,1.75
2019-01-27T21:57:03.613Z,1.74
2019-01-27T21:59:10.465Z,1.72
2019-01-27T22:01:16.568Z,1.73
2019-01-27T22:03:42.634Z,1.72
2019-01-27T22:05:49.566Z,1.72
2019-01-27T22:07:56.015Z,1.73
2019-01-27T22:10:03.008Z,1.75
2019-01-27T22:12:09.526Z,1.75
2019-01-27T22:14:17.734Z,1.76
2019-01-27T22:16:24.225Z,1.77
2019-01-27T22:18:30.848Z,1.78
2019-01-27T22:20:37.185Z,1.78
2019-01-27T22:22:43.888Z,1.77
2019-01-27T22:24:50.558Z,1.78
2019-01-27T22:26:57.325Z,1.80
2019-01-27T22:29:05.491Z,1.80
2019-01-27T22:31:13.206Z,1.80
2019-01-27T22:33:19.887Z,1.82
2019-01-27T22:35:26.305Z,1.82
2019-01-27T22:37:32.845Z,1.83
2019-01-27T22:39:39.234Z,1.82
2019-01-27T22:41:46.347Z,1.83
2019-01-27T22:43:52.766Z,1.84
2019-01-27T22:45:59.165Z,1.85
2019-01-27T22:48:05.507Z,1.84
2019-01-27T22:50:17.546Z,1.83
2019-01-27T22:52:23.986Z,1.81
2019-01-27T22:54:30.325Z,1.82
2019-01-27T22:56:36.965Z,1.83
2019-01-27T22:58:43.086Z,1.83
2019-01-27T23:01:01.826Z,1.83
2019-01-27T23:03:09.725Z,1.84
2019-01-27T23:05:16.121Z,1.84
2019-01-27T23:07:22.566Z,1.84
2019-01-27T23:09:29.106Z,1.83
2019-01-27T23:11:35.706Z,1.84
2019-01-27T23:13:42.155Z,1.84
2019-01-27T23:15:48.757Z,1.85
2019-01-27T23:17:55.466Z,1.86
2019-01-27T23:20:02.005Z,1.86
2019-01-27T23:22:09.236Z,1.85
2019-01-27T23:24:16.745Z,1.86
2019-01-27T23:26:23.086Z,1.87
2019-01-27T23:28:29.425Z,1.86
2019-01-27T23:30:36.027Z,1.88
2019-01-27T23:32:46.886Z,1.86
2019-01-27T23:34:53.245Z,1.88
2019-01-27T23:36:59.666Z,1.88
2019-01-27T23:39:09.074Z,1.89
2019-01-27T23:41:15.627Z,1.91
2019-01-27T23:43:21.934Z,1.90
2019-01-27T23:45:28.266Z,1.90
2019-01-27T23:47:34.926Z,1.91
2019-01-27T23:49:41.546Z,1.93
2019-01-27T23:51:47.946Z,1.93
2019-01-27T23:53:54.405Z,1.92
2019-01-27T23:56:01.566Z,1.91
2019-01-27T23:58:07.986Z,1.88
